createdAt,value
2018-11-25T00:01:02.501Z,3.20
2018-11-25T00:03:30.551Z,3.20
2018-11-25T00:05:58.585Z,3.20
2018-11-25T00:08:26.618Z,3.20
2018-11-25T00:10:54.741Z,3.20
2018-11-25T00:13:22.795Z,3.20
2018-11-25T00:15:50.803Z,3.30
2018-11-25T00:18:18.772Z,3.20
2018-11-25T00:20:46.783Z,3.30
2018-11-25T00:23:14.862Z,3.20
2018-11-25T00:25:42.873Z,3.20
2018-11-25T00:28:10.841Z,3.20
2018-11-25T00:30:38.885Z,3.20
2018-11-25T00:33:19.718Z,3.20
2018-11-25T00:35:47.756Z,3.20
2018-11-25T00:38:15.784Z,3.20
2018-11-25T00:40:43.768Z,3.20
2018-11-25T00:43:11.783Z,3.20
2018-11-25T00:45:39.754Z,3.20
2018-11-25T00:48:07.745Z,3.20
2018-11-25T00:50:35.714Z,3.30
2018-11-25T00:53:03.676Z,3.20
2018-11-25T00:55:31.666Z,3.20
2018-11-25T00:57:59.647Z,3.20
2018-11-25T01:00:27.641Z,3.20
2018-11-25T01:02:55.642Z,3.20
2018-11-25T01:05:23.625Z,3.20
2018-11-25T01:07:51.596Z,3.20
2018-11-25T01:10:19.605Z,3.20
2018-11-25T01:12:47.634Z,3.30
2018-11-25T01:15:16.409Z,3.30
2018-11-25T01:17:44.401Z,3.20
2018-11-25T01:20:13.735Z,3.20
2018-11-25T01:22:41.724Z,3.20
2018-11-25T01:25:10.375Z,3.20
2018-11-25T01:27:38.433Z,3.20
2018-11-25T01:30:11.845Z,3.20
2018-11-25T01:32:39.910Z,3.20
2018-11-25T01:35:10.696Z,3.20
2018-11-25T01:37:38.687Z,3.20
2018-11-25T01:40:08.972Z,3.20
2018-11-25T01:42:36.960Z,3.20
2018-11-25T01:45:05.365Z,3.20
2018-11-25T01:47:33.354Z,3.30
2018-11-25T01:50:01.283Z,3.20
2018-11-25T01:52:29.242Z,3.20
2018-11-25T01:54:57.223Z,3.20
2018-11-25T01:57:25.226Z,3.20
2018-11-25T02:02:27.677Z,3.20
2018-11-25T02:04:55.637Z,3.20
2018-11-25T02:07:23.585Z,3.20
2018-11-25T02:09:51.582Z,3.20
2018-11-25T02:12:19.556Z,3.10
2018-11-25T02:14:47.508Z,3.10
2018-11-25T02:17:15.450Z,3.10
2018-11-25T02:19:43.460Z,3.10
2018-11-25T02:22:11.447Z,3.10
2018-11-25T02:24:39.430Z,3.10
2018-11-25T02:27:07.409Z,3.10
2018-11-25T02:29:35.405Z,3.10
2018-11-25T02:32:03.401Z,3.10
2018-11-25T02:34:31.377Z,3.10
2018-11-25T02:36:59.345Z,3.20
2018-11-25T02:39:27.559Z,3.10
2018-11-25T02:41:55.523Z,3.10
2018-11-25T02:44:23.550Z,3.10
2018-11-25T02:46:51.956Z,3.20
2018-11-25T02:49:19.934Z,3.20
2018-11-25T02:51:47.898Z,3.20
2018-11-25T02:54:15.869Z,3.20
2018-11-25T02:56:43.954Z,3.20
2018-11-25T02:59:12.010Z,3.20
2018-11-25T03:01:39.989Z,3.20
2018-11-25T03:04:07.966Z,3.20
2018-11-25T03:06:36.013Z,3.20
2018-11-25T03:09:05.275Z,3.20
2018-11-25T03:11:33.272Z,3.20
2018-11-25T03:14:01.290Z,3.20
2018-11-25T03:16:29.250Z,3.20
2018-11-25T03:18:57.242Z,3.20
2018-11-25T03:21:25.263Z,3.20
2018-11-25T03:23:53.295Z,3.10
2018-11-25T03:26:21.329Z,3.00
2018-11-25T03:28:49.333Z,3.00
2018-11-25T03:31:17.300Z,3.10
2018-11-25T03:33:45.282Z,3.10
2018-11-25T03:36:13.313Z,3.00
2018-11-25T03:38:41.323Z,3.00
2018-11-25T03:41:09.285Z,3.10
2018-11-25T03:43:37.407Z,3.10
2018-11-25T03:46:07.445Z,3.20
2018-11-25T03:48:36.338Z,3.20
2018-11-25T03:51:04.335Z,3.20
2018-11-25T03:53:32.457Z,3.20
2018-11-25T03:56:00.513Z,3.30
2018-11-25T03:58:28.506Z,3.20
2018-11-25T04:00:56.503Z,3.20
2018-11-25T04:03:24.463Z,3.20
2018-11-25T04:05:52.434Z,3.20
2018-11-25T04:08:20.445Z,3.20
2018-11-25T04:10:48.537Z,3.20
2018-11-25T04:13:16.518Z,3.10
2018-11-25T04:15:44.579Z,3.10
2018-11-25T04:18:12.573Z,3.20
2018-11-25T04:20:40.547Z,3.20
2018-11-25T04:23:09.125Z,3.20
2018-11-25T04:25:37.171Z,3.20
2018-11-25T04:28:05.472Z,3.30
2018-11-25T04:30:33.518Z,3.30
2018-11-25T04:33:01.484Z,3.30
2018-11-25T04:35:29.447Z,3.30
2018-11-25T04:37:57.421Z,3.30
2018-11-25T04:40:25.433Z,3.30
2018-11-25T04:42:53.397Z,3.30
2018-11-25T04:45:21.443Z,3.30
2018-11-25T04:47:49.412Z,3.30
2018-11-25T04:50:18.521Z,3.40
2018-11-25T04:52:46.519Z,3.30
2018-11-25T04:55:14.576Z,3.30
2018-11-25T04:57:46.629Z,3.40
2018-11-25T05:00:14.640Z,3.40
2018-11-25T05:02:42.666Z,3.40
2018-11-25T05:05:11.962Z,3.40
2018-11-25T05:07:39.969Z,3.40
2018-11-25T05:10:11.563Z,3.40
2018-11-25T05:15:17.975Z,3.30
2018-11-25T05:17:45.964Z,3.40
2018-11-25T05:20:14.591Z,3.40
2018-11-25T05:22:42.588Z,3.40
2018-11-25T05:25:14.516Z,3.40
2018-11-25T05:27:42.502Z,3.30
2018-11-25T05:30:25.377Z,3.30
2018-11-25T05:32:53.373Z,3.30
2018-11-25T05:35:21.601Z,3.30
2018-11-25T05:37:49.589Z,3.30
2018-11-25T05:40:17.561Z,3.40
2018-11-25T05:42:45.558Z,3.40
2018-11-25T05:45:14.479Z,3.30
2018-11-25T05:47:42.507Z,3.30
2018-11-25T05:50:11.514Z,3.40
2018-11-25T05:52:39.481Z,3.30
2018-11-25T05:55:08.407Z,3.40
2018-11-25T05:57:36.543Z,3.40
2018-11-25T06:00:07.311Z,3.40
2018-11-25T06:02:35.286Z,3.40
2018-11-25T06:05:03.254Z,3.30
2018-11-25T06:07:31.265Z,3.30
2018-11-25T06:09:59.290Z,3.30
2018-11-25T06:12:27.271Z,3.30
2018-11-25T06:14:55.291Z,3.30
2018-11-25T06:17:23.273Z,3.30
2018-11-25T06:19:52.133Z,3.40
2018-11-25T06:22:20.135Z,3.40
2018-11-25T06:24:48.114Z,3.40
2018-11-25T06:27:16.105Z,3.40
2018-11-25T06:29:44.147Z,3.30
2018-11-25T06:32:12.100Z,3.30
2018-11-25T06:34:40.097Z,3.30
2018-11-25T06:37:08.129Z,3.30
2018-11-25T06:39:36.143Z,3.20
2018-11-25T06:42:04.106Z,3.20
2018-11-25T06:44:32.101Z,3.30
2018-11-25T06:47:00.113Z,3.30
2018-11-25T06:49:28.123Z,3.30
2018-11-25T06:51:56.069Z,3.30
2018-11-25T06:54:24.038Z,3.40
2018-11-25T06:56:51.993Z,3.40
2018-11-25T06:59:19.987Z,3.30
2018-11-25T07:01:48.087Z,3.30
2018-11-25T07:04:16.049Z,3.30
2018-11-25T07:06:44.057Z,3.30
2018-11-25T07:09:12.044Z,3.30
2018-11-25T07:11:40.030Z,3.30
2018-11-25T07:14:08.069Z,3.40
2018-11-25T07:16:36.054Z,3.40
2018-11-25T07:19:04.128Z,3.30
2018-11-25T07:21:32.178Z,3.40
2018-11-25T07:24:00.248Z,3.40
2018-11-25T07:26:28.226Z,3.40
2018-11-25T07:28:56.323Z,3.40
2018-11-25T07:31:24.302Z,3.30
2018-11-25T07:33:52.287Z,3.40
2018-11-25T07:36:20.272Z,3.40
2018-11-25T07:38:48.235Z,3.40
2018-11-25T07:41:16.235Z,3.50
2018-11-25T07:43:44.220Z,3.40
2018-11-25T07:46:12.220Z,3.50
2018-11-25T07:48:40.211Z,3.50
2018-11-25T07:51:08.200Z,3.50
2018-11-25T07:53:36.229Z,3.50
2018-11-25T07:56:04.199Z,3.50
2018-11-25T07:58:32.174Z,3.50
2018-11-25T08:01:00.294Z,3.50
2018-11-25T08:03:28.308Z,3.50
2018-11-25T08:05:56.294Z,3.60
2018-11-25T08:08:24.300Z,3.60
2018-11-25T08:10:52.395Z,3.50
2018-11-25T08:13:20.359Z,3.60
2018-11-25T08:15:48.531Z,3.50
2018-11-25T08:18:16.491Z,3.60
2018-11-25T08:20:44.485Z,3.60
2018-11-25T08:23:13.549Z,3.50
2018-11-25T08:25:40.434Z,3.60
2018-11-25T08:28:08.443Z,3.70
2018-11-25T08:30:36.447Z,3.60
2018-11-25T08:33:04.442Z,3.60
2018-11-25T08:35:32.435Z,3.60
2018-11-25T08:38:00.405Z,3.60
2018-11-25T08:40:29.447Z,3.60
2018-11-25T08:42:57.410Z,3.70
2018-11-25T08:45:25.356Z,3.70
2018-11-25T08:47:53.341Z,3.70
2018-11-25T08:50:21.306Z,3.80
2018-11-25T08:52:50.450Z,3.70
2018-11-25T08:55:19.527Z,3.80
2018-11-25T08:57:47.471Z,3.80
2018-11-25T09:00:21.363Z,3.70
2018-11-25T09:02:50.073Z,3.80
2018-11-25T09:05:18.117Z,3.80
2018-11-25T09:07:46.079Z,3.80
2018-11-25T09:10:15.098Z,3.80
2018-11-25T09:12:43.508Z,3.80
2018-11-25T09:15:12.992Z,3.80
2018-11-25T09:17:41.247Z,3.80
2018-11-25T09:20:10.805Z,3.80
2018-11-25T09:22:38.793Z,3.80
2018-11-25T09:25:09.044Z,3.80
2018-11-25T09:27:37.002Z,3.80
2018-11-25T09:30:09.971Z,3.80
2018-11-25T09:32:38.054Z,3.80
2018-11-25T09:35:07.358Z,3.90
2018-11-25T09:37:35.435Z,4.00
2018-11-25T09:40:03.533Z,4.00
2018-11-25T09:42:31.511Z,4.00
2018-11-25T09:44:59.462Z,4.00
2018-11-25T09:47:27.453Z,3.90
2018-11-25T09:49:55.607Z,3.90
2018-11-25T09:52:23.669Z,4.00
2018-11-25T09:54:51.885Z,4.10
2018-11-25T09:57:19.890Z,4.10
2018-11-25T09:59:47.872Z,4.00
2018-11-25T10:02:16.038Z,4.00
2018-11-25T10:04:44.125Z,4.10
2018-11-25T10:07:12.098Z,4.00
2018-11-25T10:09:40.074Z,4.10
2018-11-25T10:12:08.046Z,4.10
2018-11-25T10:14:35.989Z,4.10
2018-11-25T10:17:03.993Z,4.10
2018-11-25T10:19:31.954Z,4.10
2018-11-25T10:21:59.970Z,4.10
2018-11-25T10:24:27.930Z,4.10
2018-11-25T10:26:55.946Z,4.10
2018-11-25T10:29:24.284Z,4.10
2018-11-25T10:31:52.375Z,4.10
2018-11-25T10:34:20.372Z,4.10
2018-11-25T10:36:48.328Z,4.20
2018-11-25T10:39:16.297Z,4.20
2018-11-25T10:41:44.266Z,4.20
2018-11-25T10:44:12.240Z,4.20
2018-11-25T10:46:40.254Z,4.10
2018-11-25T10:49:08.228Z,4.10
2018-11-25T10:51:36.239Z,4.10
2018-11-25T10:54:04.291Z,4.10
2018-11-25T10:56:32.390Z,4.10
2018-11-25T10:59:00.453Z,4.10
2018-11-25T11:01:33.953Z,4.10
2018-11-25T11:04:02.026Z,4.10
2018-11-25T11:06:36.652Z,4.20
2018-11-25T11:09:06.645Z,4.20
2018-11-25T11:11:34.619Z,4.20
2018-11-25T11:14:02.593Z,4.30
2018-11-25T11:16:30.579Z,4.20
2018-11-25T11:18:58.528Z,4.20
2018-11-25T11:21:26.662Z,4.20
2018-11-25T11:23:54.560Z,4.30
2018-11-25T11:26:24.489Z,4.30
2018-11-25T11:28:52.485Z,4.30
2018-11-25T11:31:20.485Z,4.30
2018-11-25T11:33:48.431Z,4.30
2018-11-25T11:36:16.448Z,4.30
2018-11-25T11:38:44.433Z,4.20
2018-11-25T11:41:12.403Z,4.20
2018-11-25T11:43:40.445Z,4.30
2018-11-25T11:46:08.418Z,4.30
2018-11-25T11:48:36.432Z,4.30
2018-11-25T11:51:04.766Z,4.30
2018-11-25T11:53:32.737Z,4.30
2018-11-25T11:56:00.787Z,4.30
2018-11-25T11:58:28.763Z,4.40
2018-11-25T12:00:56.761Z,4.30
2018-11-25T12:03:26.511Z,4.30
2018-11-25T12:05:52.887Z,4.30
2018-11-25T12:08:20.977Z,4.30
2018-11-25T12:10:48.958Z,4.30
2018-11-25T12:13:16.933Z,4.40
2018-11-25T12:15:44.911Z,4.30
2018-11-25T12:18:12.934Z,4.30
2018-11-25T12:20:40.896Z,4.30
2018-11-25T12:23:09.099Z,4.30
2018-11-25T12:25:37.085Z,4.30
2018-11-25T12:28:05.234Z,4.30
2018-11-25T12:30:33.194Z,4.30
2018-11-25T12:33:01.161Z,4.30
2018-11-25T12:35:29.224Z,4.30
2018-11-25T12:37:57.300Z,4.30
2018-11-25T12:40:25.386Z,4.30
2018-11-25T12:42:54.804Z,4.30
2018-11-25T12:45:22.825Z,4.30
2018-11-25T12:47:50.806Z,4.30
2018-11-25T12:50:20.945Z,4.50
2018-11-25T12:52:49.022Z,4.40
2018-11-25T12:55:19.262Z,4.50
2018-11-25T12:57:47.517Z,4.40
2018-11-25T13:00:32.787Z,4.50
2018-11-25T13:03:00.803Z,4.50
2018-11-25T13:05:28.855Z,4.50
2018-11-25T13:07:57.009Z,4.50
2018-11-25T13:10:25.059Z,4.40
2018-11-25T13:12:53.299Z,4.40
2018-11-25T13:15:21.284Z,4.40
2018-11-25T13:17:49.274Z,4.50
2018-11-25T13:20:18.173Z,4.40
2018-11-25T13:22:46.225Z,4.50
2018-11-25T13:25:15.622Z,4.50
2018-11-25T13:27:43.621Z,4.50
2018-11-25T13:30:18.149Z,4.50
2018-11-25T13:32:46.530Z,4.50
2018-11-25T13:35:14.586Z,4.50
2018-11-25T13:37:42.657Z,4.50
2018-11-25T13:40:12.175Z,4.50
2018-11-25T13:42:40.192Z,4.70
2018-11-25T13:45:07.306Z,4.60
2018-11-25T13:47:35.337Z,4.70
2018-11-25T13:50:03.328Z,4.70
2018-11-25T13:52:31.371Z,4.70
2018-11-25T13:54:59.454Z,4.60
2018-11-25T13:57:27.413Z,4.60
2018-11-25T13:59:55.532Z,4.60
2018-11-25T14:02:23.556Z,4.60
2018-11-25T14:04:51.725Z,4.70
2018-11-25T14:07:19.698Z,4.70
2018-11-25T14:09:48.007Z,4.70
2018-11-25T14:12:15.977Z,4.70
2018-11-25T14:14:43.979Z,4.70
2018-11-25T14:17:11.983Z,4.70
2018-11-25T14:19:40.143Z,4.70
2018-11-25T14:22:08.217Z,4.70
2018-11-25T14:24:36.256Z,4.70
2018-11-25T14:27:05.707Z,4.70
2018-11-25T14:29:33.767Z,4.70
2018-11-25T14:32:01.726Z,4.70
2018-11-25T14:34:29.790Z,4.60
2018-11-25T14:36:57.844Z,4.70
2018-11-25T14:39:25.838Z,4.70
2018-11-25T14:41:53.915Z,4.70
2018-11-25T14:44:21.950Z,4.60
2018-11-25T14:46:49.975Z,4.60
2018-11-25T14:49:18.005Z,4.60
2018-11-25T14:51:45.987Z,4.60
2018-11-25T14:54:13.945Z,4.70
2018-11-25T14:56:42.947Z,4.60
2018-11-25T14:59:10.923Z,4.50
2018-11-25T15:01:38.873Z,4.60
2018-11-25T15:04:07.842Z,4.50
2018-11-25T15:06:35.817Z,4.50
2018-11-25T15:09:05.922Z,4.50
2018-11-25T15:11:34.777Z,4.40
2018-11-25T15:14:02.806Z,4.50
2018-11-25T15:16:30.874Z,4.50
2018-11-25T15:18:58.857Z,4.50
2018-11-25T15:21:26.843Z,4.60
2018-11-25T15:23:54.931Z,4.50
2018-11-25T15:26:22.903Z,4.50
2018-11-25T15:28:50.890Z,4.50
2018-11-25T15:31:18.875Z,4.50
2018-11-25T15:33:46.830Z,4.50
2018-11-25T15:36:14.801Z,4.50
2018-11-25T15:38:42.763Z,4.50
2018-11-25T15:41:10.749Z,4.60
2018-11-25T15:43:38.745Z,4.60
2018-11-25T15:46:06.680Z,4.60
2018-11-25T15:48:34.695Z,4.60
2018-11-25T15:51:02.772Z,4.70
2018-11-25T15:53:30.777Z,4.70
2018-11-25T15:56:00.878Z,4.70
2018-11-25T15:58:28.917Z,4.70
2018-11-25T16:00:56.886Z,4.70
2018-11-25T16:03:24.985Z,4.70
2018-11-25T16:05:57.337Z,4.70
2018-11-25T16:08:25.342Z,4.90
2018-11-25T16:10:53.372Z,4.80
2018-11-25T16:13:22.639Z,4.70
2018-11-25T16:15:49.395Z,4.60
2018-11-25T16:18:18.289Z,4.60
2018-11-25T16:20:46.257Z,4.60
2018-11-25T16:23:14.194Z,4.70
2018-11-25T16:25:44.294Z,4.60
2018-11-25T16:28:18.673Z,4.60
2018-11-25T16:30:46.745Z,4.50
2018-11-25T16:33:14.765Z,4.50
2018-11-25T16:35:42.757Z,4.50
2018-11-25T16:38:10.722Z,4.50
2018-11-25T16:40:38.702Z,4.50
2018-11-25T16:43:06.827Z,4.50
2018-11-25T16:45:34.893Z,4.50
2018-11-25T16:48:02.861Z,4.50
2018-11-25T16:50:30.846Z,4.50
2018-11-25T16:52:58.810Z,4.50
2018-11-25T16:55:26.773Z,4.50
2018-11-25T16:57:54.761Z,4.60
2018-11-25T17:00:22.722Z,4.50
2018-11-25T17:02:51.789Z,4.50
2018-11-25T17:05:26.065Z,4.50
2018-11-25T17:07:57.041Z,4.50
2018-11-25T17:10:25.011Z,4.60
2018-11-25T17:12:53.163Z,4.60
2018-11-25T17:15:23.525Z,4.60
2018-11-25T17:17:51.558Z,4.60
2018-11-25T17:20:19.601Z,4.60
2018-11-25T17:22:47.649Z,4.60
2018-11-25T17:25:15.646Z,4.60
2018-11-25T17:27:44.313Z,4.60
2018-11-25T17:30:13.458Z,4.60
2018-11-25T17:32:41.650Z,4.60
2018-11-25T17:35:11.332Z,4.60
2018-11-25T17:37:40.586Z,4.60
2018-11-25T17:40:09.359Z,4.60
2018-11-25T17:42:37.694Z,4.60
2018-11-25T17:45:07.745Z,4.60
2018-11-25T17:47:35.694Z,4.70
2018-11-25T17:50:04.413Z,4.70
2018-11-25T17:52:32.483Z,4.80
2018-11-25T17:55:00.530Z,4.70
2018-11-25T17:57:28.514Z,4.70
2018-11-25T17:59:56.513Z,4.70
2018-11-25T18:02:24.515Z,4.70
2018-11-25T18:04:52.605Z,4.70
2018-11-25T18:07:20.540Z,4.70
2018-11-25T18:09:48.905Z,4.70
2018-11-25T18:12:16.922Z,4.70
2018-11-25T18:14:44.902Z,4.70
2018-11-25T18:17:12.886Z,4.70
2018-11-25T18:19:40.877Z,4.70
2018-11-25T18:22:11.667Z,4.60
2018-11-25T18:24:39.646Z,4.70
2018-11-25T18:27:07.702Z,4.70
2018-11-25T18:29:35.642Z,4.80
2018-11-25T18:32:03.615Z,4.80
2018-11-25T18:34:31.694Z,4.70
2018-11-25T18:36:59.757Z,4.80
2018-11-25T18:39:27.742Z,4.70
2018-11-25T18:41:55.867Z,4.80
2018-11-25T18:44:23.832Z,4.80
2018-11-25T18:46:51.801Z,4.80
2018-11-25T18:49:19.771Z,4.80
2018-11-25T18:51:47.737Z,4.70
2018-11-25T18:54:16.203Z,4.70
2018-11-25T18:56:44.271Z,4.70
2018-11-25T18:59:12.261Z,4.80
2018-11-25T19:01:45.002Z,4.70
2018-11-25T19:04:12.993Z,4.80
2018-11-25T19:06:40.961Z,4.80
2018-11-25T19:09:09.625Z,4.70
2018-11-25T19:11:37.894Z,4.70
2018-11-25T19:14:06.043Z,4.70
2018-11-25T19:16:34.030Z,4.80
2018-11-25T19:19:02.084Z,4.80
2018-11-25T19:21:30.054Z,4.80
2018-11-25T19:23:58.128Z,4.70
2018-11-25T19:26:26.234Z,4.70
2018-11-25T19:28:54.213Z,4.80
2018-11-25T19:31:22.186Z,4.80
2018-11-25T19:33:50.211Z,4.70
2018-11-25T19:36:18.177Z,4.80
2018-11-25T19:38:46.147Z,4.80
2018-11-25T19:41:14.217Z,4.80
2018-11-25T19:43:42.246Z,4.80
2018-11-25T19:46:10.205Z,4.80
2018-11-25T19:48:38.331Z,4.80
2018-11-25T19:51:06.496Z,4.80
2018-11-25T19:53:34.461Z,4.90
2018-11-25T19:56:02.424Z,4.80
2018-11-25T19:58:30.509Z,4.80
2018-11-25T20:01:01.767Z,4.90
2018-11-25T20:03:29.738Z,4.90
2018-11-25T20:05:57.788Z,4.90
2018-11-25T20:08:25.744Z,4.90
2018-11-25T20:10:53.694Z,4.90
2018-11-25T20:13:21.675Z,4.90
2018-11-25T20:15:49.640Z,4.90
2018-11-25T20:18:17.622Z,4.90
2018-11-25T20:20:49.851Z,4.90
2018-11-25T20:23:26.571Z,4.90
2018-11-25T20:25:54.538Z,4.90
2018-11-25T20:28:22.620Z,4.90
2018-11-25T20:30:50.654Z,4.90
2018-11-25T20:33:52.980Z,4.90
2018-11-25T20:36:21.029Z,4.80
2018-11-25T20:38:54.551Z,4.80
2018-11-25T20:41:22.517Z,4.80
2018-11-25T20:43:50.613Z,4.80
2018-11-25T20:46:23.997Z,4.80
2018-11-25T20:48:51.978Z,4.80
2018-11-25T20:51:24.269Z,4.80
2018-11-25T20:53:58.529Z,4.80
2018-11-25T20:56:26.513Z,4.80
2018-11-25T20:58:54.481Z,4.90
2018-11-25T21:01:22.502Z,4.90
2018-11-25T21:03:50.502Z,4.90
2018-11-25T21:06:18.646Z,4.80
2018-11-25T21:08:46.616Z,4.90
2018-11-25T21:11:14.736Z,4.90
2018-11-25T21:13:42.761Z,4.90
2018-11-25T21:16:13.662Z,4.90
2018-11-25T21:18:41.789Z,4.90
2018-11-25T21:21:09.806Z,4.90
2018-11-25T21:23:38.942Z,4.80
2018-11-25T21:26:06.908Z,4.90
2018-11-25T21:28:35.020Z,4.90
2018-11-25T21:31:03.175Z,4.90
2018-11-25T21:33:31.234Z,4.90
2018-11-25T21:35:59.308Z,4.80
2018-11-25T21:38:27.294Z,4.90
2018-11-25T21:40:55.385Z,4.90
2018-11-25T21:43:23.412Z,4.90
2018-11-25T21:45:51.431Z,4.90
2018-11-25T21:48:19.443Z,4.90
2018-11-25T21:50:47.513Z,4.90
2018-11-25T21:53:15.598Z,4.80
2018-11-25T21:55:43.661Z,4.80
2018-11-25T21:58:11.626Z,4.80
2018-11-25T22:00:39.722Z,4.90
2018-11-25T22:03:07.803Z,4.80
2018-11-25T22:05:35.839Z,4.80
2018-11-25T22:08:03.797Z,4.80
2018-11-25T22:10:31.902Z,4.80
2018-11-25T22:12:59.866Z,4.80
2018-11-25T22:15:27.935Z,4.90
2018-11-25T22:17:55.894Z,4.80
2018-11-25T22:20:23.878Z,4.90
2018-11-25T22:22:52.731Z,4.80
2018-11-25T22:25:20.935Z,4.90
2018-11-25T22:27:49.006Z,4.80
2018-11-25T22:30:20.059Z,4.90
2018-11-25T22:32:48.090Z,4.90
2018-11-25T22:35:17.216Z,4.90
2018-11-25T22:37:46.188Z,4.90
2018-11-25T22:40:16.033Z,4.90
2018-11-25T22:42:45.098Z,4.90
2018-11-25T22:45:16.162Z,4.90
2018-11-25T22:47:44.188Z,4.90
2018-11-25T22:50:13.442Z,4.90
2018-11-25T22:52:41.900Z,4.90
2018-11-25T22:55:13.566Z,4.90
2018-11-25T22:57:41.538Z,4.90
2018-11-25T23:00:17.485Z,4.90
2018-11-25T23:02:45.669Z,4.90
2018-11-25T23:06:26.111Z,5.00
2018-11-25T23:08:54.103Z,5.00
2018-11-25T23:11:22.071Z,4.90
2018-11-25T23:13:50.097Z,4.90
2018-11-25T23:16:18.094Z,4.90
2018-11-25T23:18:46.033Z,4.90
2018-11-25T23:21:14.052Z,5.00
2018-11-25T23:23:42.015Z,4.90
2018-11-25T23:26:09.987Z,5.00
2018-11-25T23:28:38.035Z,4.90
2018-11-25T23:31:06.031Z,4.90
2018-11-25T23:33:33.990Z,4.90
2018-11-25T23:36:01.986Z,4.90
2018-11-25T23:38:30.013Z,4.90
2018-11-25T23:40:57.978Z,4.90
2018-11-25T23:43:25.946Z,4.90
2018-11-25T23:45:53.973Z,4.90
2018-11-25T23:48:21.940Z,4.90
2018-11-25T23:50:50.023Z,4.90
2018-11-25T23:53:17.977Z,4.90
2018-11-25T23:55:45.939Z,4.90
2018-11-25T23:58:14.001Z,4.90
